sensor_id;sensor_type;location;lat;lon;timestamp;temperature;humidity
9668;DHT22;4872;48.316;10.650;2023-08-06T04:08:26;14.60;99.90
9668;DHT22;4872;48.316;10.650;2023-08-06T04:10:53;14.60;99.90
9668;DHT22;4872;48.316;10.650;2023-08-06T04:13:20;14.70;99.90
9668;DHT22;4872;48.316;10.650;2023-08-06T04:15:47;14.60;99.90
9668;DHT22;4872;48.316;10.650;2023-08-06T04:18:14;14.60;99.90
9668;DHT22;4872;48.316;10.650;2023-08-06T04:20:44;14.60;99.90
9668;DHT22;4872;48.316;10.650;2023-08-06T04:23:11;14.60;99.90
9668;DHT22;4872;48.316;10.650;2023-08-06T04:25:39;14.60;99.90
9668;DHT22;4872;48.316;10.650;2023-08-06T04:28:07;14.60;99.90
9668;DHT22;4872;48.316;10.650;2023-08-06T04:30:34;14.60;99.90
9668;DHT22;4872;48.316;10.650;2023-08-06T04:33:01;14.60;99.90
9668;DHT22;4872;48.316;10.650;2023-08-06T04:35:27;14.60;99.90
9668;DHT22;4872;48.316;10.650;2023-08-06T04:37:54;14.60;99.90
9668;DHT22;4872;48.316;10.650;2023-08-06T04:40:21;14.60;99.90
9668;DHT22;4872;48.316;10.650;2023-08-06T04:42:49;14.70;99.90
9668;DHT22;4872;48.316;10.650;2023-08-06T04:45:16;14.60;99.90
9668;DHT22;4872;48.316;10.650;2023-08-06T04:47:42;14.60;99.90
9668;DHT22;4872;48.316;10.650;2023-08-06T04:50:09;14.40;99.90
9668;DHT22;4872;48.316;10.650;2023-08-06T04:52:37;14.40;99.90
9668;DHT22;4872;48.316;10.650;2023-08-06T04:55:04;14.40;99.90
9668;DHT22;4872;48.316;10.650;2023-08-06T04:57:32;14.40;99.90
9668;DHT22;4872;48.316;10.650;2023-08-06T05:00:00;14.40;99.90
9668;DHT22;4872;48.316;10.650;2023-08-06T05:02:27;14.50;99.90
9668;DHT22;4872;48.316;10.650;2023-08-06T05:04:53;14.50;99.90
9668;DHT22;4872;48.316;10.650;2023-08-06T05:07:20;14.50;99.90
9668;DHT22;4872;48.316;10.650;2023-08-06T05:09:47;14.60;99.90
9668;DHT22;4872;48.316;10.650;2023-08-06T05:12:13;14.60;99.90
9668;DHT22;4872;48.316;10.650;2023-08-06T05:14:40;15.00;99.90
9668;DHT22;4872;48.316;10.650;2023-08-06T05:17:08;14.80;99.90
9668;DHT22;4872;48.316;10.650;2023-08-06T05:19:35;14.90;99.90
9668;DHT22;4872;48.316;10.650;2023-08-06T05:22:02;15.00;99.90
9668;DHT22;4872;48.316;10.650;2023-08-06T05:24:29;15.10;99.90
9668;DHT22;4872;48.316;10.650;2023-08-06T05:26:57;15.20;99.90
9668;DHT22;4872;48.316;10.650;2023-08-06T05:29:23;15.20;99.90
9668;DHT22;4872;48.316;10.650;2023-08-06T05:31:50;15.20;99.90
9668;DHT22;4872;48.316;10.650;2023-08-06T05:34:18;15.30;99.90
9668;DHT22;4872;48.316;10.650;2023-08-06T05:36:45;15.40;99.90
9668;DHT22;4872;48.316;10.650;2023-08-06T05:39:11;15.40;99.90
9668;DHT22;4872;48.316;10.650;2023-08-06T05:41:38;15.40;99.90
9668;DHT22;4872;48.316;10.650;2023-08-06T05:44:05;15.30;99.90
9668;DHT22;4872;48.316;10.650;2023-08-06T05:46:32;15.40;99.90
9668;DHT22;4872;48.316;10.650;2023-08-06T05:48:58;15.40;99.90
9668;DHT22;4872;48.316;10.650;2023-08-06T05:51:27;15.30;99.90
9668;DHT22;4872;48.316;10.650;2023-08-06T05:53:54;15.70;99.90
9668;DHT22;4872;48.316;10.650;2023-08-06T05:56:20;15.40;99.90
9668;DHT22;4872;48.316;10.650;2023-08-06T05:58:47;15.30;99.90
9668;DHT22;4872;48.316;10.650;2023-08-06T06:01:16;15.30;99.90
9668;DHT22;4872;48.316;10.650;2023-08-06T06:03:42;15.20;99.90
9668;DHT22;4872;48.316;10.650;2023-08-06T06:06:09;15.10;99.90
9668;DHT22;4872;48.316;10.650;2023-08-06T06:08:37;15.10;99.90
9668;DHT22;4872;48.316;10.650;2023-08-06T06:11:04;15.10;99.90
9668;DHT22;4872;48.316;10.650;2023-08-06T06:13:31;15.10;99.90
9668;DHT22;4872;48.316;10.650;2023-08-06T06:15:57;15.00;99.90
9668;DHT22;4872;48.316;10.650;2023-08-06T06:18:24;15.00;99.90
9668;DHT22;4872;48.316;10.650;2023-08-06T06:20:51;14.90;99.90
9668;DHT22;4872;48.316;10.650;2023-08-06T06:23:17;14.90;99.90
9668;DHT22;4872;48.316;10.650;2023-08-06T06:25:48;14.80;99.90
9668;DHT22;4872;48.316;10.650;2023-08-06T06:28:15;14.80;99.90
9668;DHT22;4872;48.316;10.650;2023-08-06T06:30:42;14.70;99.90
9668;DHT22;4872;48.316;10.650;2023-08-06T06:33:08;14.70;99.90
9668;DHT22;4872;48.316;10.650;2023-08-06T06:35:36;14.70;99.90
9668;DHT22;4872;48.316;10.650;2023-08-06T06:38:03;14.80;99.90
9668;DHT22;4872;48.316;10.650;2023-08-06T06:40:29;14.70;99.90
9668;DHT22;4872;48.316;10.650;2023-08-06T06:42:57;14.80;99.90
9668;DHT22;4872;48.316;10.650;2023-08-06T06:45:24;14.70;99.90
9668;DHT22;4872;48.316;10.650;2023-08-06T06:47:51;14.70;99.90
9668;DHT22;4872;48.316;10.650;2023-08-06T06:50:18;14.60;99.90
9668;DHT22;4872;48.316;10.650;2023-08-06T06:52:44;14.70;99.90
9668;DHT22;4872;48.316;10.650;2023-08-06T06:55:11;14.70;99.90
9668;DHT22;4872;48.316;10.650;2023-08-06T06:57:38;14.80;99.90
9668;DHT22;4872;48.316;10.650;2023-08-06T07:00:07;14.90;99.90
9668;DHT22;4872;48.316;10.650;2023-08-06T07:02:34;14.80;99.90
9668;DHT22;4872;48.316;10.650;2023-08-06T07:05:01;14.80;99.90
9668;DHT22;4872;48.316;10.650;2023-08-06T07:07:27;15.00;99.90
9668;DHT22;4872;48.316;10.650;2023-08-06T07:09:54;14.90;99.90
9668;DHT22;4872;48.316;10.650;2023-08-06T07:12:21;15.00;99.90
9668;DHT22;4872;48.316;10.650;2023-08-06T07:14:49;15.10;99.90
9668;DHT22;4872;48.316;10.650;2023-08-06T07:17:17;15.20;99.90
9668;DHT22;4872;48.316;10.650;2023-08-06T07:19:44;15.30;99.90
9668;DHT22;4872;48.316;10.650;2023-08-06T07:22:10;15.40;99.90
9668;DHT22;4872;48.316;10.650;2023-08-06T07:24:37;15.40;99.90
9668;DHT22;4872;48.316;10.650;2023-08-06T07:27:05;15.50;99.90
9668;DHT22;4872;48.316;10.650;2023-08-06T07:29:32;15.70;99.90
9668;DHT22;4872;48.316;10.650;2023-08-06T07:31:58;15.70;99.90
9668;DHT22;4872;48.316;10.650;2023-08-06T07:34:27;15.70;99.90
9668;DHT22;4872;48.316;10.650;2023-08-06T07:36:53;15.70;99.90
9668;DHT22;4872;48.316;10.650;2023-08-06T07:39:20;15.90;99.90
9668;DHT22;4872;48.316;10.650;2023-08-06T07:41:48;16.00;99.90
9668;DHT22;4872;48.316;10.650;2023-08-06T07:44:15;16.20;99.90
9668;DHT22;4872;48.316;10.650;2023-08-06T07:46:41;16.20;99.90
9668;DHT22;4872;48.316;10.650;2023-08-06T07:49:09;16.20;99.90
9668;DHT22;4872;48.316;10.650;2023-08-06T07:51:37;16.10;99.90
9668;DHT22;4872;48.316;10.650;2023-08-06T07:54:05;16.00;99.90
9668;DHT22;4872;48.316;10.650;2023-08-06T07:56:32;15.90;99.90
9668;DHT22;4872;48.316;10.650;2023-08-06T07:58:59;15.80;99.90
9668;DHT22;4872;48.316;10.650;2023-08-06T08:01:26;15.80;99.90
9668;DHT22;4872;48.316;10.650;2023-08-06T08:03:52;15.70;99.90
9668;DHT22;4872;48.316;10.650;2023-08-06T08:06:19;15.80;99.90
9668;DHT22;4872;48.316;10.650;2023-08-06T08:08:47;15.70;99.90
9668;DHT22;4872;48.316;10.650;2023-08-06T08:11:14;15.80;99.90
9668;DHT22;4872;48.316;10.650;2023-08-06T08:13:41;15.90;99.90
9668;DHT22;4872;48.316;10.650;2023-08-06T08:16:08;15.90;99.90
9668;DHT22;4872;48.316;10.650;2023-08-06T08:18:35;15.90;99.90
9668;DHT22;4872;48.316;10.650;2023-08-06T08:21:01;16.10;99.90
9668;DHT22;4872;48.316;10.650;2023-08-06T08:23:28;16.30;99.90
9668;DHT22;4872;48.316;10.650;2023-08-06T08:25:58;16.20;99.90
9668;DHT22;4872;48.316;10.650;2023-08-06T08:28:24;16.30;99.90
9668;DHT22;4872;48.316;10.650;2023-08-06T08:30:51;16.30;99.90
9668;DHT22;4872;48.316;10.650;2023-08-06T08:33:18;16.30;99.90
9668;DHT22;4872;48.316;10.650;2023-08-06T08:35:46;16.50;99.90
9668;DHT22;4872;48.316;10.650;2023-08-06T08:38:13;16.30;99.90
9668;DHT22;4872;48.316;10.650;2023-08-06T08:40:44;16.00;99.90
9668;DHT22;4872;48.316;10.650;2023-08-06T08:43:14;16.00;99.90
9668;DHT22;4872;48.316;10.650;2023-08-06T08:45:42;15.70;99.90
9668;DHT22;4872;48.316;10.650;2023-08-06T08:48:11;15.90;99.90
9668;DHT22;4872;48.316;10.650;2023-08-06T08:50:39;15.80;99.90
9668;DHT22;4872;48.316;10.650;2023-08-06T08:53:06;15.80;99.90
9668;DHT22;4872;48.316;10.650;2023-08-06T08:55:33;15.80;99.90
9668;DHT22;4872;48.316;10.650;2023-08-06T08:58:00;15.70;99.90
9668;DHT22;4872;48.316;10.650;2023-08-06T09:00:29;15.60;99.90
9668;DHT22;4872;48.316;10.650;2023-08-06T09:02:57;15.50;99.90
9668;DHT22;4872;48.316;10.650;2023-08-06T09:05:25;15.70;99.90
9668;DHT22;4872;48.316;10.650;2023-08-06T09:07:55;15.60;99.90
9668;DHT22;4872;48.316;10.650;2023-08-06T09:10:23;15.60;99.90
9668;DHT22;4872;48.316;10.650;2023-08-06T09:12:51;15.70;99.90
9668;DHT22;4872;48.316;10.650;2023-08-06T09:15:19;15.70;99.90
9668;DHT22;4872;48.316;10.650;2023-08-06T09:17:48;15.70;99.90
9668;DHT22;4872;48.316;10.650;2023-08-06T09:20:15;15.80;99.90
9668;DHT22;4872;48.316;10.650;2023-08-06T09:22:42;15.70;99.90
9668;DHT22;4872;48.316;10.650;2023-08-06T09:25:09;15.70;99.90
9668;DHT22;4872;48.316;10.650;2023-08-06T09:27:37;15.60;99.90
9668;DHT22;4872;48.316;10.650;2023-08-06T09:30:05;15.70;99.90
9668;DHT22;4872;48.316;10.650;2023-08-06T09:32:45;15.40;99.90
9668;DHT22;4872;48.316;10.650;2023-08-06T09:35:17;15.50;99.90
9668;DHT22;4872;48.316;10.650;2023-08-06T09:37:44;15.50;99.90
9668;DHT22;4872;48.316;10.650;2023-08-06T09:40:27;15.70;99.90
9668;DHT22;4872;48.316;10.650;2023-08-06T09:42:54;15.90;99.90
9668;DHT22;4872;48.316;10.650;2023-08-06T09:45:21;16.00;99.90
9668;DHT22;4872;48.316;10.650;2023-08-06T09:47:48;15.90;99.90
9668;DHT22;4872;48.316;10.650;2023-08-06T09:50:17;15.90;99.90
9668;DHT22;4872;48.316;10.650;2023-08-06T09:52:45;15.80;99.90
9668;DHT22;4872;48.316;10.650;2023-08-06T09:55:12;16.00;99.90
9668;DHT22;4872;48.316;10.650;2023-08-06T09:57:39;15.90;99.90
9668;DHT22;4872;48.316;10.650;2023-08-06T10:00:07;16.00;99.90
9668;DHT22;4872;48.316;10.650;2023-08-06T10:02:35;15.70;99.90
9668;DHT22;4872;48.316;10.650;2023-08-06T10:05:04;15.70;99.90
9668;DHT22;4872;48.316;10.650;2023-08-06T10:07:34;15.70;99.90
9668;DHT22;4872;48.316;10.650;2023-08-06T10:10:01;15.70;99.90
9668;DHT22;4872;48.316;10.650;2023-08-06T10:12:31;15.80;99.90
9668;DHT22;4872;48.316;10.650;2023-08-06T10:15:03;15.90;99.90
9668;DHT22;4872;48.316;10.650;2023-08-06T10:17:32;16.10;99.90
9668;DHT22;4872;48.316;10.650;2023-08-06T10:19:59;16.20;99.90
9668;DHT22;4872;48.316;10.650;2023-08-06T10:22:26;16.10;99.90
9668;DHT22;4872;48.316;10.650;2023-08-06T10:24:56;16.00;99.90
9668;DHT22;4872;48.316;10.650;2023-08-06T10:27:28;15.70;99.90
9668;DHT22;4872;48.316;10.650;2023-08-06T10:29:56;15.40;99.90
9668;DHT22;4872;48.316;10.650;2023-08-06T10:32:46;15.30;99.90
9668;DHT22;4872;48.316;10.650;2023-08-06T10:35:31;15.30;99.90
9668;DHT22;4872;48.316;10.650;2023-08-06T10:37:59;15.30;99.90
9668;DHT22;4872;48.316;10.650;2023-08-06T10:40:27;15.30;99.90
9668;DHT22;4872;48.316;10.650;2023-08-06T10:42:58;15.40;99.90
9668;DHT22;4872;48.316;10.650;2023-08-06T10:45:24;15.40;99.90
9668;DHT22;4872;48.316;10.650;2023-08-06T10:47:54;15.50;99.90
9668;DHT22;4872;48.316;10.650;2023-08-06T10:50:22;15.60;99.90
9668;DHT22;4872;48.316;10.650;2023-08-06T10:52:48;15.40;99.90
9668;DHT22;4872;48.316;10.650;2023-08-06T10:55:22;15.40;99.90
9668;DHT22;4872;48.316;10.650;2023-08-06T10:57:51;15.30;99.90
9668;DHT22;4872;48.316;10.650;2023-08-06T11:00:18;15.20;99.90
9668;DHT22;4872;48.316;10.650;2023-08-06T11:02:47;15.30;99.90
9668;DHT22;4872;48.316;10.650;2023-08-06T11:05:14;15.30;99.90
9668;DHT22;4872;48.316;10.650;2023-08-06T11:07:41;15.30;99.90
9668;DHT22;4872;48.316;10.650;2023-08-06T11:10:10;15.30;99.90
9668;DHT22;4872;48.316;10.650;2023-08-06T11:12:37;15.30;99.90
9668;DHT22;4872;48.316;10.650;2023-08-06T11:15:06;15.30;99.90
9668;DHT22;4872;48.316;10.650;2023-08-06T11:17:34;15.50;99.90
9668;DHT22;4872;48.316;10.650;2023-08-06T11:20:01;15.70;99.90
9668;DHT22;4872;48.316;10.650;2023-08-06T11:22:28;15.80;99.90
9668;DHT22;4872;48.316;10.650;2023-08-06T11:24:55;15.90;99.90
9668;DHT22;4872;48.316;10.650;2023-08-06T11:27:22;16.10;99.90
9668;DHT22;4872;48.316;10.650;2023-08-06T11:29:49;16.10;99.90
9668;DHT22;4872;48.316;10.650;2023-08-06T11:32:17;16.30;99.90
9668;DHT22;4872;48.316;10.650;2023-08-06T11:34:44;16.40;99.90
9668;DHT22;4872;48.316;10.650;2023-08-06T11:37:11;16.40;99.90
9668;DHT22;4872;48.316;10.650;2023-08-06T11:39:38;16.60;99.90
9668;DHT22;4872;48.316;10.650;2023-08-06T11:42:06;16.70;99.90
9668;DHT22;4872;48.316;10.650;2023-08-06T11:44:35;16.80;99.90
9668;DHT22;4872;48.316;10.650;2023-08-06T11:47:03;16.60;99.90
9668;DHT22;4872;48.316;10.650;2023-08-06T11:49:40;16.50;99.90
9668;DHT22;4872;48.316;10.650;2023-08-06T11:52:19;16.30;99.90
9668;DHT22;4872;48.316;10.650;2023-08-06T11:54:47;16.10;99.90
9668;DHT22;4872;48.316;10.650;2023-08-06T11:57:15;15.90;99.90
9668;DHT22;4872;48.316;10.650;2023-08-06T11:59:43;15.90;99.90
9668;DHT22;4872;48.316;10.650;2023-08-06T12:02:10;15.70;99.90
9668;DHT22;4872;48.316;10.650;2023-08-06T12:05:01;15.60;99.90
9668;DHT22;4872;48.316;10.650;2023-08-06T12:07:30;15.60;99.90
9668;DHT22;4872;48.316;10.650;2023-08-06T12:09:57;15.50;99.90
9668;DHT22;4872;48.316;10.650;2023-08-06T12:12:24;15.40;99.90
9668;DHT22;4872;48.316;10.650;2023-08-06T12:14:51;15.30;99.90
9668;DHT22;4872;48.316;10.650;2023-08-06T12:17:18;15.20;99.90
9668;DHT22;4872;48.316;10.650;2023-08-06T12:19:45;15.20;99.90
9668;DHT22;4872;48.316;10.650;2023-08-06T12:22:14;15.30;99.90
9668;DHT22;4872;48.316;10.650;2023-08-06T12:24:41;15.10;99.90
9668;DHT22;4872;48.316;10.650;2023-08-06T12:27:08;15.00;99.90
9668;DHT22;4872;48.316;10.650;2023-08-06T12:29:35;15.20;99.90
9668;DHT22;4872;48.316;10.650;2023-08-06T12:32:02;15.10;99.90
9668;DHT22;4872;48.316;10.650;2023-08-06T12:34:29;15.10;99.90
9668;DHT22;4872;48.316;10.650;2023-08-06T12:36:56;15.20;99.90
9668;DHT22;4872;48.316;10.650;2023-08-06T12:39:24;15.20;99.90
9668;DHT22;4872;48.316;10.650;2023-08-06T12:41:54;15.40;99.90
9668;DHT22;4872;48.316;10.650;2023-08-06T12:44:21;15.30;99.90
9668;DHT22;4872;48.316;10.650;2023-08-06T12:46:47;15.40;99.90
9668;DHT22;4872;48.316;10.650;2023-08-06T12:49:14;15.20;99.90
9668;DHT22;4872;48.316;10.650;2023-08-06T12:51:41;15.10;99.90
9668;DHT22;4872;48.316;10.650;2023-08-06T12:54:08;15.00;99.90
9668;DHT22;4872;48.316;10.650;2023-08-06T12:56:36;15.10;99.90
9668;DHT22;4872;48.316;10.650;2023-08-06T12:59:03;15.10;99.90
9668;DHT22;4872;48.316;10.650;2023-08-06T13:01:29;15.20;99.90
9668;DHT22;4872;48.316;10.650;2023-08-06T13:03:57;15.70;99.90
9668;DHT22;4872;48.316;10.650;2023-08-06T13:06:24;15.10;99.90
9668;DHT22;4872;48.316;10.650;2023-08-06T13:08:51;15.20;99.90
9668;DHT22;4872;48.316;10.650;2023-08-06T13:11:17;15.20;99.90
9668;DHT22;4872;48.316;10.650;2023-08-06T13:13:46;15.20;99.90
9668;DHT22;4872;48.316;10.650;2023-08-06T13:16:13;15.30;99.90
9668;DHT22;4872;48.316;10.650;2023-08-06T13:18:40;15.20;99.90
9668;DHT22;4872;48.316;10.650;2023-08-06T13:21:07;15.20;99.90
9668;DHT22;4872;48.316;10.650;2023-08-06T13:23:33;15.20;99.90
9668;DHT22;4872;48.316;10.650;2023-08-06T13:26:00;15.60;99.90
9668;DHT22;4872;48.316;10.650;2023-08-06T13:28:27;15.20;99.90
9668;DHT22;4872;48.316;10.650;2023-08-06T13:30:55;15.00;99.90
9668;DHT22;4872;48.316;10.650;2023-08-06T13:33:22;15.10;99.90
9668;DHT22;4872;48.316;10.650;2023-08-06T13:35:48;15.10;99.90
9668;DHT22;4872;48.316;10.650;2023-08-06T13:38:16;14.80;99.90
9668;DHT22;4872;48.316;10.650;2023-08-06T13:40:43;14.80;99.90
9668;DHT22;4872;48.316;10.650;2023-08-06T13:43:09;14.70;99.90
9668;DHT22;4872;48.316;10.650;2023-08-06T13:45:36;14.60;99.90
9668;DHT22;4872;48.316;10.650;2023-08-06T13:48:05;14.50;99.90
9668;DHT22;4872;48.316;10.650;2023-08-06T13:50:32;14.50;99.90
9668;DHT22;4872;48.316;10.650;2023-08-06T13:52:58;14.60;99.90
9668;DHT22;4872;48.316;10.650;2023-08-06T13:55:25;14.70;99.90
9668;DHT22;4872;48.316;10.650;2023-08-06T13:57:52;14.90;99.90
9668;DHT22;4872;48.316;10.650;2023-08-06T14:00:19;14.90;99.90
9668;DHT22;4872;48.316;10.650;2023-08-06T14:02:45;15.00;99.90
9668;DHT22;4872;48.316;10.650;2023-08-06T14:05:13;14.90;99.90
9668;DHT22;4872;48.316;10.650;2023-08-06T14:07:40;15.10;99.90
9668;DHT22;4872;48.316;10.650;2023-08-06T14:10:07;15.00;99.90
9668;DHT22;4872;48.316;10.650;2023-08-06T14:12:35;15.10;99.90
9668;DHT22;4872;48.316;10.650;2023-08-06T14:15:02;15.20;99.90
9668;DHT22;4872;48.316;10.650;2023-08-06T14:17:29;15.30;99.90
9668;DHT22;4872;48.316;10.650;2023-08-06T14:19:56;15.50;99.90
9668;DHT22;4872;48.316;10.650;2023-08-06T14:22:24;15.40;99.90
9668;DHT22;4872;48.316;10.650;2023-08-06T14:24:51;15.40;99.90
9668;DHT22;4872;48.316;10.650;2023-08-06T14:27:18;15.20;99.90
9668;DHT22;4872;48.316;10.650;2023-08-06T14:29:45;15.30;99.90
9668;DHT22;4872;48.316;10.650;2023-08-06T14:32:12;15.30;99.90
9668;DHT22;4872;48.316;10.650;2023-08-06T14:34:40;15.40;99.90
9668;DHT22;4872;48.316;10.650;2023-08-06T14:37:07;15.50;99.90
9668;DHT22;4872;48.316;10.650;2023-08-06T14:39:35;17.00;99.90
9668;DHT22;4872;48.316;10.650;2023-08-06T14:42:02;16.10;99.90
9668;DHT22;4872;48.316;10.650;2023-08-06T14:44:31;16.20;99.90
9668;DHT22;4872;48.316;10.650;2023-08-06T14:46:57;16.30;99.90
9668;DHT22;4872;48.316;10.650;2023-08-06T14:49:24;16.00;99.90
9668;DHT22;4872;48.316;10.650;2023-08-06T14:51:51;16.00;99.90
9668;DHT22;4872;48.316;10.650;2023-08-06T14:54:18;15.80;99.90
9668;DHT22;4872;48.316;10.650;2023-08-06T14:56:46;16.80;99.90
9668;DHT22;4872;48.316;10.650;2023-08-06T14:59:13;15.60;99.90
9668;DHT22;4872;48.316;10.650;2023-08-06T15:01:40;15.50;99.90
9668;DHT22;4872;48.316;10.650;2023-08-06T15:04:06;15.30;99.90
9668;DHT22;4872;48.316;10.650;2023-08-06T15:06:33;15.60;99.90
9668;DHT22;4872;48.316;10.650;2023-08-06T15:09:00;15.00;99.90
9668;DHT22;4872;48.316;10.650;2023-08-06T15:11:30;14.90;99.90
9668;DHT22;4872;48.316;10.650;2023-08-06T15:14:01;15.00;99.90
9668;DHT22;4872;48.316;10.650;2023-08-06T15:16:30;14.90;99.90
9668;DHT22;4872;48.316;10.650;2023-08-06T15:18:59;14.90;99.90
9668;DHT22;4872;48.316;10.650;2023-08-06T15:21:26;15.00;99.90
9668;DHT22;4872;48.316;10.650;2023-08-06T15:23:53;14.70;99.90
9668;DHT22;4872;48.316;10.650;2023-08-06T15:26:19;15.50;99.90
9668;DHT22;4872;48.316;10.650;2023-08-06T15:28:46;14.70;99.90
9668;DHT22;4872;48.316;10.650;2023-08-06T15:31:14;14.70;99.90
9668;DHT22;4872;48.316;10.650;2023-08-06T15:33:41;14.60;99.90
9668;DHT22;4872;48.316;10.650;2023-08-06T15:36:08;14.60;99.90
9668;DHT22;4872;48.316;10.650;2023-08-06T15:38:34;14.40;99.90
9668;DHT22;4872;48.316;10.650;2023-08-06T15:41:01;14.40;99.90
9668;DHT22;4872;48.316;10.650;2023-08-06T15:43:28;14.40;99.90
9668;DHT22;4872;48.316;10.650;2023-08-06T15:45:55;14.50;99.90
9668;DHT22;4872;48.316;10.650;2023-08-06T15:48:23;14.70;99.90
9668;DHT22;4872;48.316;10.650;2023-08-06T15:50:50;14.90;99.90
9668;DHT22;4872;48.316;10.650;2023-08-06T15:53:16;15.20;99.90
9668;DHT22;4872;48.316;10.650;2023-08-06T15:55:43;15.40;99.90
9668;DHT22;4872;48.316;10.650;2023-08-06T15:58:12;15.50;99.90
9668;DHT22;4872;48.316;10.650;2023-08-06T16:00:39;15.40;99.90
9668;DHT22;4872;48.316;10.650;2023-08-06T16:03:06;15.20;99.90
9668;DHT22;4872;48.316;10.650;2023-08-06T16:05:34;15.20;99.90
9668;DHT22;4872;48.316;10.650;2023-08-06T16:08:01;15.10;99.90
9668;DHT22;4872;48.316;10.650;2023-08-06T16:10:27;15.00;99.90
9668;DHT22;4872;48.316;10.650;2023-08-06T16:12:54;15.10;99.90
9668;DHT22;4872;48.316;10.650;2023-08-06T16:15:21;14.80;99.90
9668;DHT22;4872;48.316;10.650;2023-08-06T16:17:47;15.10;99.90
9668;DHT22;4872;48.316;10.650;2023-08-06T16:20:14;15.00;99.90
9668;DHT22;4872;48.316;10.650;2023-08-06T16:22:42;15.00;99.90
9668;DHT22;4872;48.316;10.650;2023-08-06T16:25:09;15.20;99.90
9668;DHT22;4872;48.316;10.650;2023-08-06T16:27:38;15.00;99.90
9668;DHT22;4872;48.316;10.650;2023-08-06T16:30:06;15.00;99.90
9668;DHT22;4872;48.316;10.650;2023-08-06T16:32:33;15.00;99.90
9668;DHT22;4872;48.316;10.650;2023-08-06T16:35:01;14.90;99.90
9668;DHT22;4872;48.316;10.650;2023-08-06T16:37:28;14.90;99.90
9668;DHT22;4872;48.316;10.650;2023-08-06T16:39:56;15.30;99.90
9668;DHT22;4872;48.316;10.650;2023-08-06T16:42:23;15.40;99.90
9668;DHT22;4872;48.316;10.650;2023-08-06T16:44:50;15.50;99.90
9668;DHT22;4872;48.316;10.650;2023-08-06T16:47:17;15.10;99.90
9668;DHT22;4872;48.316;10.650;2023-08-06T16:49:43;15.10;99.90
9668;DHT22;4872;48.316;10.650;2023-08-06T16:52:10;15.00;99.90
9668;DHT22;4872;48.316;10.650;2023-08-06T16:54:37;14.80;99.90
9668;DHT22;4872;48.316;10.650;2023-08-06T16:57:06;14.70;99.90
9668;DHT22;4872;48.316;10.650;2023-08-06T16:59:32;15.20;99.90
9668;DHT22;4872;48.316;10.650;2023-08-06T17:01:59;16.00;99.90
9668;DHT22;4872;48.316;10.650;2023-08-06T17:04:26;16.40;99.90
9668;DHT22;4872;48.316;10.650;2023-08-06T17:06:52;16.10;99.90
9668;DHT22;4872;48.316;10.650;2023-08-06T17:09:19;15.90;99.90
9668;DHT22;4872;48.316;10.650;2023-08-06T17:11:46;15.90;99.90
9668;DHT22;4872;48.316;10.650;2023-08-06T17:14:15;15.70;99.90
9668;DHT22;4872;48.316;10.650;2023-08-06T17:16:41;15.70;99.90
9668;DHT22;4872;48.316;10.650;2023-08-06T17:19:08;15.90;99.90
9668;DHT22;4872;48.316;10.650;2023-08-06T17:21:35;15.70;99.90
9668;DHT22;4872;48.316;10.650;2023-08-06T17:24:03;15.70;99.90
9668;DHT22;4872;48.316;10.650;2023-08-06T17:26:30;15.60;99.90
9668;DHT22;4872;48.316;10.650;2023-08-06T17:28:57;15.70;99.90
9668;DHT22;4872;48.316;10.650;2023-08-06T17:31:25;15.60;99.90
9668;DHT22;4872;48.316;10.650;2023-08-06T17:33:51;15.40;99.90
9668;DHT22;4872;48.316;10.650;2023-08-06T17:36:19;15.20;99.90
9668;DHT22;4872;48.316;10.650;2023-08-06T17:38:46;15.20;99.90
9668;DHT22;4872;48.316;10.650;2023-08-06T17:41:12;15.20;99.90
9668;DHT22;4872;48.316;10.650;2023-08-06T17:43:39;14.90;99.90
9668;DHT22;4872;48.316;10.650;2023-08-06T17:46:06;14.90;99.90
9668;DHT22;4872;48.316;10.650;2023-08-06T17:48:34;14.80;99.90
9668;DHT22;4872;48.316;10.650;2023-08-06T17:51:01;14.70;99.90
9668;DHT22;4872;48.316;10.650;2023-08-06T17:53:28;14.50;99.90
9668;DHT22;4872;48.316;10.650;2023-08-06T17:55:54;14.40;99.90
9668;DHT22;4872;48.316;10.650;2023-08-06T17:58:21;14.30;99.90
9668;DHT22;4872;48.316;10.650;2023-08-06T18:00:49;14.20;99.90
9668;DHT22;4872;48.316;10.650;2023-08-06T18:03:16;14.10;99.90
9668;DHT22;4872;48.316;10.650;2023-08-06T18:05:44;14.10;99.90
9668;DHT22;4872;48.316;10.650;2023-08-06T18:08:10;14.10;99.90
9668;DHT22;4872;48.316;10.650;2023-08-06T18:10:38;14.10;99.90
9668;DHT22;4872;48.316;10.650;2023-08-06T18:13:04;14.00;99.90
9668;DHT22;4872;48.316;10.650;2023-08-06T18:15:31;14.00;99.90
9668;DHT22;4872;48.316;10.650;2023-08-06T18:17:58;13.90;99.90
9668;DHT22;4872;48.316;10.650;2023-08-06T18:20:25;13.80;99.90
9668;DHT22;4872;48.316;10.650;2023-08-06T18:22:53;13.70;99.90
9668;DHT22;4872;48.316;10.650;2023-08-06T18:25:19;13.70;99.90
9668;DHT22;4872;48.316;10.650;2023-08-06T18:27:47;13.70;99.90
9668;DHT22;4872;48.316;10.650;2023-08-06T18:30:14;13.80;99.90
9668;DHT22;4872;48.316;10.650;2023-08-06T18:32:40;13.80;99.90
9668;DHT22;4872;48.316;10.650;2023-08-06T18:35:08;13.80;99.90
9668;DHT22;4872;48.316;10.650;2023-08-06T18:37:35;13.80;99.90
9668;DHT22;4872;48.316;10.650;2023-08-06T18:40:06;13.80;99.90
9668;DHT22;4872;48.316;10.650;2023-08-06T18:42:33;13.80;99.90
9668;DHT22;4872;48.316;10.650;2023-08-06T18:45:00;13.80;99.90
9668;DHT22;4872;48.316;10.650;2023-08-06T18:47:27;13.80;99.90
9668;DHT22;4872;48.316;10.650;2023-08-06T18:49:54;13.70;99.90
9668;DHT22;4872;48.316;10.650;2023-08-06T18:52:21;13.70;99.90
9668;DHT22;4872;48.316;10.650;2023-08-06T18:54:48;13.60;99.90
9668;DHT22;4872;48.316;10.650;2023-08-06T18:57:16;13.60;99.90
9668;DHT22;4872;48.316;10.650;2023-08-06T18:59:44;13.50;99.90
9668;DHT22;4872;48.316;10.650;2023-08-06T19:02:11;13.50;99.90
9668;DHT22;4872;48.316;10.650;2023-08-06T19:04:38;13.50;99.90
9668;DHT22;4872;48.316;10.650;2023-08-06T19:07:05;13.40;99.90
9668;DHT22;4872;48.316;10.650;2023-08-06T19:09:31;13.40;99.90
9668;DHT22;4872;48.316;10.650;2023-08-06T19:11:58;13.50;99.90
9668;DHT22;4872;48.316;10.650;2023-08-06T19:14:26;13.40;99.90
9668;DHT22;4872;48.316;10.650;2023-08-06T19:16:53;13.40;99.90
9668;DHT22;4872;48.316;10.650;2023-08-06T19:19:24;13.40;99.90
9668;DHT22;4872;48.316;10.650;2023-08-06T19:21:50;13.40;99.90
9668;DHT22;4872;48.316;10.650;2023-08-06T19:24:18;13.40;99.90
9668;DHT22;4872;48.316;10.650;2023-08-06T19:26:45;13.40;99.90
9668;DHT22;4872;48.316;10.650;2023-08-06T19:29:11;13.40;99.90
9668;DHT22;4872;48.316;10.650;2023-08-06T19:31:40;13.30;99.90
9668;DHT22;4872;48.316;10.650;2023-08-06T19:34:07;13.30;99.90
9668;DHT22;4872;48.316;10.650;2023-08-06T19:36:34;13.40;99.90
9668;DHT22;4872;48.316;10.650;2023-08-06T19:39:01;13.40;99.90
9668;DHT22;4872;48.316;10.650;2023-08-06T19:41:31;13.40;99.90
9668;DHT22;4872;48.316;10.650;2023-08-06T19:44:02;13.40;99.90
9668;DHT22;4872;48.316;10.650;2023-08-06T19:46:29;13.40;99.90
9668;DHT22;4872;48.316;10.650;2023-08-06T19:48:57;13.30;99.90
9668;DHT22;4872;48.316;10.650;2023-08-06T19:51:24;13.20;99.90
9668;DHT22;4872;48.316;10.650;2023-08-06T19:53:51;13.20;99.90